sensor_id;sensor_type;location;lat;lon;timestamp;P1;durP1;ratioP1;P2;durP2;ratioP2
75135;SDS011;63707;52.212;9.540;2023-02-28T00:01:02;4.93;;;2.40;;
75135;SDS011;63707;52.212;9.540;2023-02-28T00:03:28;5.25;;;2.70;;
75135;SDS011;63707;52.212;9.540;2023-02-28T00:05:53;6.70;;;3.13;;
75135;SDS011;63707;52.212;9.540;2023-02-28T00:08:19;5.82;;;2.63;;
75135;SDS011;63707;52.212;9.540;2023-02-28T00:10:46;4.90;;;2.30;;
75135;SDS011;63707;52.212;9.540;2023-02-28T00:13:11;8.95;;;2.72;;
75135;SDS011;63707;52.212;9.540;2023-02-28T00:15:37;5.45;;;2.58;;
75135;SDS011;63707;52.212;9.540;2023-02-28T00:18:02;4.72;;;1.98;;
75135;SDS011;63707;52.212;9.540;2023-02-28T00:20:28;8.43;;;2.20;;
75135;SDS011;63707;52.212;9.540;2023-02-28T00:22:54;4.50;;;1.83;;
75135;SDS011;63707;52.212;9.540;2023-02-28T00:25:21;4.57;;;1.70;;
75135;SDS011;63707;52.212;9.540;2023-02-28T00:27:49;6.85;;;1.90;;
75135;SDS011;63707;52.212;9.540;2023-02-28T00:30:16;3.33;;;1.95;;
75135;SDS011;63707;52.212;9.540;2023-02-28T00:32:43;6.13;;;2.17;;
75135;SDS011;63707;52.212;9.540;2023-02-28T00:35:09;4.45;;;2.00;;
75135;SDS011;63707;52.212;9.540;2023-02-28T00:37:36;5.55;;;1.77;;
75135;SDS011;63707;52.212;9.540;2023-02-28T00:40:01;4.65;;;1.80;;
75135;SDS011;63707;52.212;9.540;2023-02-28T00:42:29;4.78;;;1.80;;
75135;SDS011;63707;52.212;9.540;2023-02-28T00:44:56;3.92;;;1.55;;
75135;SDS011;63707;52.212;9.540;2023-02-28T00:47:22;4.68;;;1.60;;
75135;SDS011;63707;52.212;9.540;2023-02-28T00:49:47;3.90;;;1.30;;
75135;SDS011;63707;52.212;9.540;2023-02-28T00:52:13;5.50;;;1.65;;
75135;SDS011;63707;52.212;9.540;2023-02-28T00:54:38;3.33;;;1.58;;
75135;SDS011;63707;52.212;9.540;2023-02-28T00:57:04;4.95;;;1.80;;
75135;SDS011;63707;52.212;9.540;2023-02-28T00:59:29;3.33;;;1.52;;
75135;SDS011;63707;52.212;9.540;2023-02-28T01:01:56;4.63;;;1.45;;
75135;SDS011;63707;52.212;9.540;2023-02-28T01:04:22;2.40;;;1.45;;
75135;SDS011;63707;52.212;9.540;2023-02-28T01:06:47;2.53;;;1.33;;
75135;SDS011;63707;52.212;9.540;2023-02-28T01:09:13;4.28;;;1.90;;
75135;SDS011;63707;52.212;9.540;2023-02-28T01:11:38;1.75;;;1.17;;
75135;SDS011;63707;52.212;9.540;2023-02-28T01:14:05;2.70;;;1.40;;
75135;SDS011;63707;52.212;9.540;2023-02-28T01:16:31;3.40;;;1.15;;
75135;SDS011;63707;52.212;9.540;2023-02-28T01:18:58;4.35;;;1.40;;
75135;SDS011;63707;52.212;9.540;2023-02-28T01:21:24;4.22;;;1.63;;
75135;SDS011;63707;52.212;9.540;2023-02-28T01:23:49;2.78;;;1.40;;
75135;SDS011;63707;52.212;9.540;2023-02-28T01:26:15;4.97;;;1.40;;
75135;SDS011;63707;52.212;9.540;2023-02-28T01:28:43;2.47;;;1.38;;
75135;SDS011;63707;52.212;9.540;2023-02-28T01:31:08;2.95;;;1.40;;
75135;SDS011;63707;52.212;9.540;2023-02-28T01:33:34;5.97;;;1.50;;
75135;SDS011;63707;52.212;9.540;2023-02-28T01:36:02;2.95;;;1.33;;
75135;SDS011;63707;52.212;9.540;2023-02-28T01:38:29;2.45;;;1.40;;
75135;SDS011;63707;52.212;9.540;2023-02-28T01:40:55;2.88;;;1.50;;
75135;SDS011;63707;52.212;9.540;2023-02-28T01:43:22;3.28;;;1.55;;
75135;SDS011;63707;52.212;9.540;2023-02-28T01:45:49;4.00;;;1.40;;
75135;SDS011;63707;52.212;9.540;2023-02-28T01:48:15;3.22;;;1.40;;
75135;SDS011;63707;52.212;9.540;2023-02-28T01:50:42;2.42;;;1.35;;
75135;SDS011;63707;52.212;9.540;2023-02-28T01:53:12;2.70;;;1.30;;
75135;SDS011;63707;52.212;9.540;2023-02-28T01:55:40;5.50;;;1.73;;
75135;SDS011;63707;52.212;9.540;2023-02-28T01:58:08;2.00;;;1.45;;
75135;SDS011;63707;52.212;9.540;2023-02-28T02:00:34;2.10;;;1.40;;
75135;SDS011;63707;52.212;9.540;2023-02-28T02:03:01;2.15;;;1.50;;
75135;SDS011;63707;52.212;9.540;2023-02-28T02:05:31;3.25;;;1.42;;
75135;SDS011;63707;52.212;9.540;2023-02-28T02:07:57;6.32;;;1.67;;
75135;SDS011;63707;52.212;9.540;2023-02-28T02:10:29;4.82;;;1.70;;
75135;SDS011;63707;52.212;9.540;2023-02-28T02:13:02;4.88;;;1.73;;
75135;SDS011;63707;52.212;9.540;2023-02-28T02:15:38;4.18;;;1.67;;
75135;SDS011;63707;52.212;9.540;2023-02-28T02:18:09;4.95;;;1.63;;
75135;SDS011;63707;52.212;9.540;2023-02-28T02:23:47;5.25;;;2.10;;
75135;SDS011;63707;52.212;9.540;2023-02-28T02:26:49;4.88;;;2.22;;
75135;SDS011;63707;52.212;9.540;2023-02-28T02:29:33;4.55;;;2.40;;
75135;SDS011;63707;52.212;9.540;2023-02-28T02:35:21;2.60;;;1.80;;
75135;SDS011;63707;52.212;9.540;2023-02-28T02:37:50;4.68;;;2.03;;
75135;SDS011;63707;52.212;9.540;2023-02-28T02:40:23;3.10;;;1.88;;
75135;SDS011;63707;52.212;9.540;2023-02-28T02:42:55;6.55;;;2.28;;
75135;SDS011;63707;52.212;9.540;2023-02-28T02:45:27;5.97;;;2.33;;
75135;SDS011;63707;52.212;9.540;2023-02-28T02:48:00;3.08;;;1.80;;
75135;SDS011;63707;52.212;9.540;2023-02-28T02:50:31;4.18;;;2.00;;
75135;SDS011;63707;52.212;9.540;2023-02-28T02:53:01;3.70;;;2.25;;
75135;SDS011;63707;52.212;9.540;2023-02-28T02:55:30;7.40;;;2.13;;
75135;SDS011;63707;52.212;9.540;2023-02-28T02:57:58;3.15;;;2.03;;
75135;SDS011;63707;52.212;9.540;2023-02-28T03:00:29;3.67;;;1.90;;
75135;SDS011;63707;52.212;9.540;2023-02-28T03:02:59;4.30;;;2.00;;
75135;SDS011;63707;52.212;9.540;2023-02-28T03:05:26;3.70;;;1.60;;
75135;SDS011;63707;52.212;9.540;2023-02-28T03:07:57;2.40;;;1.65;;
75135;SDS011;63707;52.212;9.540;2023-02-28T03:13:11;4.68;;;1.70;;
75135;SDS011;63707;52.212;9.540;2023-02-28T03:15:50;3.55;;;1.38;;
75135;SDS011;63707;52.212;9.540;2023-02-28T03:18:29;2.15;;;1.35;;
75135;SDS011;63707;52.212;9.540;2023-02-28T03:21:04;2.95;;;1.02;;
75135;SDS011;63707;52.212;9.540;2023-02-28T03:23:38;3.53;;;1.35;;
75135;SDS011;63707;52.212;9.540;2023-02-28T03:26:12;2.55;;;1.23;;
75135;SDS011;63707;52.212;9.540;2023-02-28T03:28:45;4.00;;;1.10;;
75135;SDS011;63707;52.212;9.540;2023-02-28T03:31:19;3.13;;;1.40;;
75135;SDS011;63707;52.212;9.540;2023-02-28T03:33:51;2.08;;;1.20;;
75135;SDS011;63707;52.212;9.540;2023-02-28T03:36:26;2.80;;;1.30;;
75135;SDS011;63707;52.212;9.540;2023-02-28T03:38:55;4.68;;;1.20;;
75135;SDS011;63707;52.212;9.540;2023-02-28T03:41:29;3.22;;;1.05;;
75135;SDS011;63707;52.212;9.540;2023-02-28T03:43:58;2.65;;;1.10;;
75135;SDS011;63707;52.212;9.540;2023-02-28T03:46:28;4.65;;;1.00;;
75135;SDS011;63707;52.212;9.540;2023-02-28T03:48:59;6.20;;;1.08;;
75135;SDS011;63707;52.212;9.540;2023-02-28T03:51:31;2.28;;;1.10;;
75135;SDS011;63707;52.212;9.540;2023-02-28T03:53:57;1.77;;;0.88;;
75135;SDS011;63707;52.212;9.540;2023-02-28T03:56:29;1.73;;;0.80;;
75135;SDS011;63707;52.212;9.540;2023-02-28T03:59:00;1.38;;;0.70;;
75135;SDS011;63707;52.212;9.540;2023-02-28T04:01:31;2.03;;;1.00;;
75135;SDS011;63707;52.212;9.540;2023-02-28T04:04:00;2.63;;;0.90;;
75135;SDS011;63707;52.212;9.540;2023-02-28T04:06:27;2.17;;;1.10;;
75135;SDS011;63707;52.212;9.540;2023-02-28T04:08:56;2.03;;;0.80;;
75135;SDS011;63707;52.212;9.540;2023-02-28T04:11:22;3.55;;;0.73;;
75135;SDS011;63707;52.212;9.540;2023-02-28T04:13:52;3.65;;;1.08;;
75135;SDS011;63707;52.212;9.540;2023-02-28T04:16:18;3.28;;;0.90;;
75135;SDS011;63707;52.212;9.540;2023-02-28T04:18:43;1.08;;;0.80;;
75135;SDS011;63707;52.212;9.540;2023-02-28T04:21:09;2.63;;;0.93;;
75135;SDS011;63707;52.212;9.540;2023-02-28T04:23:35;5.03;;;0.90;;
75135;SDS011;63707;52.212;9.540;2023-02-28T04:26:02;1.52;;;0.90;;
75135;SDS011;63707;52.212;9.540;2023-02-28T04:28:29;1.08;;;0.70;;
75135;SDS011;63707;52.212;9.540;2023-02-28T04:30:55;1.77;;;0.88;;
75135;SDS011;63707;52.212;9.540;2023-02-28T04:33:21;1.67;;;1.13;;
75135;SDS011;63707;52.212;9.540;2023-02-28T04:35:46;3.78;;;0.68;;
75135;SDS011;63707;52.212;9.540;2023-02-28T04:38:12;2.33;;;1.10;;
75135;SDS011;63707;52.212;9.540;2023-02-28T04:40:37;2.30;;;0.98;;
75135;SDS011;63707;52.212;9.540;2023-02-28T04:43:04;5.68;;;1.73;;
75135;SDS011;63707;52.212;9.540;2023-02-28T04:45:30;3.75;;;1.50;;
75135;SDS011;63707;52.212;9.540;2023-02-28T04:47:57;3.63;;;1.50;;
75135;SDS011;63707;52.212;9.540;2023-02-28T04:50:22;2.72;;;1.30;;
75135;SDS011;63707;52.212;9.540;2023-02-28T04:52:48;2.47;;;1.30;;
75135;SDS011;63707;52.212;9.540;2023-02-28T04:55:14;3.90;;;1.80;;
75135;SDS011;63707;52.212;9.540;2023-02-28T04:57:39;4.30;;;1.75;;
75135;SDS011;63707;52.212;9.540;2023-02-28T05:00:09;2.55;;;1.30;;
75135;SDS011;63707;52.212;9.540;2023-02-28T05:02:36;3.42;;;1.70;;
75135;SDS011;63707;52.212;9.540;2023-02-28T05:05:04;2.55;;;1.27;;
75135;SDS011;63707;52.212;9.540;2023-02-28T05:07:29;3.60;;;1.35;;
75135;SDS011;63707;52.212;9.540;2023-02-28T05:09:55;2.45;;;1.33;;
75135;SDS011;63707;52.212;9.540;2023-02-28T05:12:20;4.28;;;1.50;;
75135;SDS011;63707;52.212;9.540;2023-02-28T05:14:46;4.40;;;1.80;;
75135;SDS011;63707;52.212;9.540;2023-02-28T05:17:13;4.72;;;2.55;;
75135;SDS011;63707;52.212;9.540;2023-02-28T05:19:38;7.38;;;3.35;;
75135;SDS011;63707;52.212;9.540;2023-02-28T05:22:03;6.82;;;2.90;;
75135;SDS011;63707;52.212;9.540;2023-02-28T05:24:29;7.32;;;2.90;;
75135;SDS011;63707;52.212;9.540;2023-02-28T05:26:55;6.35;;;2.55;;
75135;SDS011;63707;52.212;9.540;2023-02-28T05:29:20;3.53;;;2.00;;
75135;SDS011;63707;52.212;9.540;2023-02-28T05:31:46;4.20;;;1.75;;
75135;SDS011;63707;52.212;9.540;2023-02-28T05:34:13;2.90;;;1.60;;
75135;SDS011;63707;52.212;9.540;2023-02-28T05:36:40;2.80;;;1.40;;
75135;SDS011;63707;52.212;9.540;2023-02-28T05:39:06;2.85;;;1.60;;
75135;SDS011;63707;52.212;9.540;2023-02-28T05:41:38;3.28;;;1.35;;
75135;SDS011;63707;52.212;9.540;2023-02-28T05:44:04;1.95;;;1.17;;
75135;SDS011;63707;52.212;9.540;2023-02-28T05:46:29;3.38;;;1.40;;
75135;SDS011;63707;52.212;9.540;2023-02-28T05:48:55;2.47;;;0.90;;
75135;SDS011;63707;52.212;9.540;2023-02-28T05:51:24;2.65;;;1.08;;
75135;SDS011;63707;52.212;9.540;2023-02-28T05:53:49;5.47;;;1.58;;
75135;SDS011;63707;52.212;9.540;2023-02-28T05:56:15;4.38;;;1.38;;
75135;SDS011;63707;52.212;9.540;2023-02-28T05:58:40;2.97;;;1.35;;
75135;SDS011;63707;52.212;9.540;2023-02-28T06:01:22;2.97;;;1.20;;
75135;SDS011;63707;52.212;9.540;2023-02-28T06:03:50;2.72;;;1.15;;
75135;SDS011;63707;52.212;9.540;2023-02-28T06:06:16;1.88;;;1.17;;
75135;SDS011;63707;52.212;9.540;2023-02-28T06:08:43;3.22;;;1.50;;
75135;SDS011;63707;52.212;9.540;2023-02-28T06:11:09;1.48;;;1.20;;
75135;SDS011;63707;52.212;9.540;2023-02-28T06:13:35;4.47;;;1.40;;
75135;SDS011;63707;52.212;9.540;2023-02-28T06:16:01;6.93;;;1.80;;
75135;SDS011;63707;52.212;9.540;2023-02-28T06:18:26;3.55;;;2.05;;
75135;SDS011;63707;52.212;9.540;2023-02-28T06:20:52;4.53;;;2.10;;
75135;SDS011;63707;52.212;9.540;2023-02-28T06:23:19;4.55;;;2.17;;
75135;SDS011;63707;52.212;9.540;2023-02-28T06:25:46;4.65;;;2.08;;
75135;SDS011;63707;52.212;9.540;2023-02-28T06:28:12;3.00;;;1.73;;
75135;SDS011;63707;52.212;9.540;2023-02-28T06:30:38;4.38;;;2.00;;
75135;SDS011;63707;52.212;9.540;2023-02-28T06:33:04;7.32;;;2.33;;
75135;SDS011;63707;52.212;9.540;2023-02-28T06:35:29;4.05;;;2.00;;
75135;SDS011;63707;52.212;9.540;2023-02-28T06:37:55;5.13;;;2.00;;
75135;SDS011;63707;52.212;9.540;2023-02-28T06:40:21;4.85;;;2.47;;
75135;SDS011;63707;52.212;9.540;2023-02-28T06:42:47;4.18;;;2.25;;
75135;SDS011;63707;52.212;9.540;2023-02-28T06:45:13;3.67;;;1.92;;
75135;SDS011;63707;52.212;9.540;2023-02-28T06:47:39;5.70;;;2.03;;
75135;SDS011;63707;52.212;9.540;2023-02-28T06:50:06;2.97;;;1.80;;
75135;SDS011;63707;52.212;9.540;2023-02-28T06:52:33;6.13;;;2.13;;
75135;SDS011;63707;52.212;9.540;2023-02-28T06:55:01;3.63;;;2.00;;
75135;SDS011;63707;52.212;9.540;2023-02-28T06:57:27;5.05;;;2.42;;
75135;SDS011;63707;52.212;9.540;2023-02-28T06:59:56;4.20;;;2.20;;
75135;SDS011;63707;52.212;9.540;2023-02-28T07:02:22;6.50;;;2.22;;
75135;SDS011;63707;52.212;9.540;2023-02-28T07:04:48;5.78;;;2.22;;
75135;SDS011;63707;52.212;9.540;2023-02-28T07:07:14;5.18;;;1.90;;
75135;SDS011;63707;52.212;9.540;2023-02-28T07:09:39;4.13;;;2.38;;
75135;SDS011;63707;52.212;9.540;2023-02-28T07:12:05;5.30;;;2.25;;
75135;SDS011;63707;52.212;9.540;2023-02-28T07:14:30;4.10;;;2.15;;
75135;SDS011;63707;52.212;9.540;2023-02-28T07:16:57;4.18;;;2.30;;
75135;SDS011;63707;52.212;9.540;2023-02-28T07:19:23;4.43;;;2.30;;
75135;SDS011;63707;52.212;9.540;2023-02-28T07:21:49;5.10;;;2.30;;
75135;SDS011;63707;52.212;9.540;2023-02-28T07:24:15;4.50;;;2.63;;
75135;SDS011;63707;52.212;9.540;2023-02-28T07:26:42;5.00;;;2.58;;
75135;SDS011;63707;52.212;9.540;2023-02-28T07:29:08;5.72;;;2.88;;
75135;SDS011;63707;52.212;9.540;2023-02-28T07:31:35;4.43;;;2.75;;
75135;SDS011;63707;52.212;9.540;2023-02-28T07:34:02;5.30;;;2.53;;
75135;SDS011;63707;52.212;9.540;2023-02-28T07:36:28;6.57;;;3.15;;
75135;SDS011;63707;52.212;9.540;2023-02-28T07:38:53;9.05;;;4.05;;
75135;SDS011;63707;52.212;9.540;2023-02-28T07:41:19;7.25;;;3.47;;
75135;SDS011;63707;52.212;9.540;2023-02-28T07:43:46;7.10;;;3.22;;
75135;SDS011;63707;52.212;9.540;2023-02-28T07:46:13;5.85;;;3.20;;
75135;SDS011;63707;52.212;9.540;2023-02-28T07:48:40;8.43;;;3.15;;
75135;SDS011;63707;52.212;9.540;2023-02-28T07:51:07;6.78;;;3.03;;
75135;SDS011;63707;52.212;9.540;2023-02-28T07:53:33;7.70;;;4.10;;
75135;SDS011;63707;52.212;9.540;2023-02-28T07:55:59;7.32;;;3.78;;
75135;SDS011;63707;52.212;9.540;2023-02-28T07:58:26;6.57;;;3.38;;
75135;SDS011;63707;52.212;9.540;2023-02-28T08:00:52;6.43;;;3.90;;
75135;SDS011;63707;52.212;9.540;2023-02-28T08:03:19;8.68;;;4.28;;
75135;SDS011;63707;52.212;9.540;2023-02-28T08:05:46;8.65;;;4.30;;
75135;SDS011;63707;52.212;9.540;2023-02-28T08:08:14;10.10;;;4.55;;
75135;SDS011;63707;52.212;9.540;2023-02-28T08:10:40;9.27;;;4.93;;
75135;SDS011;63707;52.212;9.540;2023-02-28T08:13:06;9.80;;;4.13;;
75135;SDS011;63707;52.212;9.540;2023-02-28T08:15:31;6.68;;;4.45;;
75135;SDS011;63707;52.212;9.540;2023-02-28T08:17:57;6.78;;;4.55;;
75135;SDS011;63707;52.212;9.540;2023-02-28T08:20:22;8.93;;;4.90;;
75135;SDS011;63707;52.212;9.540;2023-02-28T08:22:48;8.73;;;4.95;;
75135;SDS011;63707;52.212;9.540;2023-02-28T08:25:15;8.63;;;5.25;;
75135;SDS011;63707;52.212;9.540;2023-02-28T08:27:41;9.55;;;5.78;;
75135;SDS011;63707;52.212;9.540;2023-02-28T08:30:07;8.32;;;5.53;;
75135;SDS011;63707;52.212;9.540;2023-02-28T08:32:34;8.25;;;5.00;;
75135;SDS011;63707;52.212;9.540;2023-02-28T08:35:00;6.35;;;4.50;;
75135;SDS011;63707;52.212;9.540;2023-02-28T08:37:26;8.63;;;4.88;;
75135;SDS011;63707;52.212;9.540;2023-02-28T08:39:52;6.82;;;5.18;;
75135;SDS011;63707;52.212;9.540;2023-02-28T08:42:19;7.55;;;4.82;;
75135;SDS011;63707;52.212;9.540;2023-02-28T08:44:44;7.05;;;4.00;;
75135;SDS011;63707;52.212;9.540;2023-02-28T08:47:10;5.53;;;4.45;;
75135;SDS011;63707;52.212;9.540;2023-02-28T08:49:36;6.53;;;4.28;;
75135;SDS011;63707;52.212;9.540;2023-02-28T08:52:02;7.20;;;5.05;;
75135;SDS011;63707;52.212;9.540;2023-02-28T08:54:28;5.60;;;3.88;;
75135;SDS011;63707;52.212;9.540;2023-02-28T08:56:56;6.72;;;4.47;;
75135;SDS011;63707;52.212;9.540;2023-02-28T08:59:23;5.57;;;4.10;;
75135;SDS011;63707;52.212;9.540;2023-02-28T09:01:48;5.53;;;3.85;;
75135;SDS011;63707;52.212;9.540;2023-02-28T09:04:14;6.68;;;4.60;;
75135;SDS011;63707;52.212;9.540;2023-02-28T09:06:39;5.03;;;3.95;;
75135;SDS011;63707;52.212;9.540;2023-02-28T09:09:05;5.15;;;4.28;;
75135;SDS011;63707;52.212;9.540;2023-02-28T09:11:32;5.43;;;4.30;;
75135;SDS011;63707;52.212;9.540;2023-02-28T09:13:58;8.55;;;4.07;;
75135;SDS011;63707;52.212;9.540;2023-02-28T09:16:29;6.28;;;3.67;;
75135;SDS011;63707;52.212;9.540;2023-02-28T09:18:56;4.93;;;3.30;;
75135;SDS011;63707;52.212;9.540;2023-02-28T09:21:22;4.20;;;3.22;;
75135;SDS011;63707;52.212;9.540;2023-02-28T09:23:48;6.40;;;4.80;;
75135;SDS011;63707;52.212;9.540;2023-02-28T09:26:15;4.50;;;3.42;;
75135;SDS011;63707;52.212;9.540;2023-02-28T09:28:42;3.58;;;3.20;;
75135;SDS011;63707;52.212;9.540;2023-02-28T09:31:10;3.58;;;2.80;;
75135;SDS011;63707;52.212;9.540;2023-02-28T09:33:38;3.72;;;3.05;;
75135;SDS011;63707;52.212;9.540;2023-02-28T09:36:04;4.25;;;3.00;;
75135;SDS011;63707;52.212;9.540;2023-02-28T09:38:30;4.85;;;3.05;;
75135;SDS011;63707;52.212;9.540;2023-02-28T09:40:56;5.65;;;3.30;;
75135;SDS011;63707;52.212;9.540;2023-02-28T09:43:25;5.47;;;3.42;;
75135;SDS011;63707;52.212;9.540;2023-02-28T09:45:55;4.90;;;3.50;;
75135;SDS011;63707;52.212;9.540;2023-02-28T09:48:27;5.28;;;4.18;;
75135;SDS011;63707;52.212;9.540;2023-02-28T09:51:00;4.47;;;3.80;;
75135;SDS011;63707;52.212;9.540;2023-02-28T09:53:29;4.25;;;3.53;;
75135;SDS011;63707;52.212;9.540;2023-02-28T09:55:59;5.35;;;4.28;;
75135;SDS011;63707;52.212;9.540;2023-02-28T09:58:31;4.85;;;3.58;;
75135;SDS011;63707;52.212;9.540;2023-02-28T10:01:03;5.15;;;3.60;;
75135;SDS011;63707;52.212;9.540;2023-02-28T10:03:35;4.78;;;3.55;;
75135;SDS011;63707;52.212;9.540;2023-02-28T10:06:08;5.40;;;3.35;;
75135;SDS011;63707;52.212;9.540;2023-02-28T10:08:40;4.57;;;3.83;;
75135;SDS011;63707;52.212;9.540;2023-02-28T10:11:11;5.18;;;3.70;;
75135;SDS011;63707;52.212;9.540;2023-02-28T10:13:41;4.30;;;3.53;;
75135;SDS011;63707;52.212;9.540;2023-02-28T10:16:22;4.00;;;3.58;;
75135;SDS011;63707;52.212;9.540;2023-02-28T10:18:56;4.63;;;3.40;;
75135;SDS011;63707;52.212;9.540;2023-02-28T10:21:28;5.80;;;3.88;;
75135;SDS011;63707;52.212;9.540;2023-02-28T10:24:01;3.85;;;3.40;;
75135;SDS011;63707;52.212;9.540;2023-02-28T10:26:35;4.68;;;3.47;;
75135;SDS011;63707;52.212;9.540;2023-02-28T10:29:01;5.10;;;3.75;;
75135;SDS011;63707;52.212;9.540;2023-02-28T10:31:28;4.22;;;3.67;;
75135;SDS011;63707;52.212;9.540;2023-02-28T10:33:53;5.93;;;4.50;;
75135;SDS011;63707;52.212;9.540;2023-02-28T10:36:20;4.95;;;3.67;;
75135;SDS011;63707;52.212;9.540;2023-02-28T10:38:48;5.03;;;3.55;;
75135;SDS011;63707;52.212;9.540;2023-02-28T10:41:15;4.85;;;3.90;;
75135;SDS011;63707;52.212;9.540;2023-02-28T10:43:50;7.10;;;3.95;;
75135;SDS011;63707;52.212;9.540;2023-02-28T10:46:16;4.95;;;4.18;;
75135;SDS011;63707;52.212;9.540;2023-02-28T10:48:59;7.55;;;4.30;;
75135;SDS011;63707;52.212;9.540;2023-02-28T10:51:26;4.90;;;4.30;;
75135;SDS011;63707;52.212;9.540;2023-02-28T10:54:02;5.22;;;4.00;;
75135;SDS011;63707;52.212;9.540;2023-02-28T10:56:29;6.57;;;4.35;;
75135;SDS011;63707;52.212;9.540;2023-02-28T10:58:55;6.72;;;4.82;;
75135;SDS011;63707;52.212;9.540;2023-02-28T11:01:23;5.85;;;4.28;;
75135;SDS011;63707;52.212;9.540;2023-02-28T11:03:50;5.00;;;4.28;;
75135;SDS011;63707;52.212;9.540;2023-02-28T11:06:17;5.10;;;4.53;;
75135;SDS011;63707;52.212;9.540;2023-02-28T11:08:47;4.90;;;4.15;;
75135;SDS011;63707;52.212;9.540;2023-02-28T11:11:16;7.20;;;4.07;;
75135;SDS011;63707;52.212;9.540;2023-02-28T11:13:44;5.63;;;4.60;;
75135;SDS011;63707;52.212;9.540;2023-02-28T11:16:12;5.47;;;4.40;;
75135;SDS011;63707;52.212;9.540;2023-02-28T11:18:40;4.50;;;4.10;;
75135;SDS011;63707;52.212;9.540;2023-02-28T11:21:08;6.68;;;5.10;;
75135;SDS011;63707;52.212;9.540;2023-02-28T11:23:41;5.55;;;4.82;;
75135;SDS011;63707;52.212;9.540;2023-02-28T11:26:07;5.32;;;4.80;;
75135;SDS011;63707;52.212;9.540;2023-02-28T11:28:38;5.40;;;3.40;;
75135;SDS011;63707;52.212;9.540;2023-02-28T11:31:09;5.68;;;5.18;;
75135;SDS011;63707;52.212;9.540;2023-02-28T11:33:42;4.95;;;3.55;;
75135;SDS011;63707;52.212;9.540;2023-02-28T11:36:11;8.90;;;4.28;;
75135;SDS011;63707;52.212;9.540;2023-02-28T11:38:39;5.78;;;3.88;;
75135;SDS011;63707;52.212;9.540;2023-02-28T11:41:09;5.53;;;3.15;;
75135;SDS011;63707;52.212;9.540;2023-02-28T11:44:02;4.80;;;2.40;;
75135;SDS011;63707;52.212;9.540;2023-02-28T11:46:47;3.72;;;2.70;;
75135;SDS011;63707;52.212;9.540;2023-02-28T11:49:22;4.15;;;2.00;;
75135;SDS011;63707;52.212;9.540;2023-02-28T11:51:56;3.47;;;2.10;;
75135;SDS011;63707;52.212;9.540;2023-02-28T11:54:28;4.03;;;2.25;;
75135;SDS011;63707;52.212;9.540;2023-02-28T11:57:09;7.18;;;2.40;;
75135;SDS011;63707;52.212;9.540;2023-02-28T11:59:48;5.53;;;2.20;;
75135;SDS011;63707;52.212;9.540;2023-02-28T12:02:25;5.05;;;2.47;;
75135;SDS011;63707;52.212;9.540;2023-02-28T12:07:41;7.40;;;3.42;;
75135;SDS011;63707;52.212;9.540;2023-02-28T12:10:19;6.85;;;2.67;;
75135;SDS011;63707;52.212;9.540;2023-02-28T12:12:48;9.00;;;3.55;;
75135;SDS011;63707;52.212;9.540;2023-02-28T12:15:42;5.10;;;3.10;;
75135;SDS011;63707;52.212;9.540;2023-02-28T12:21:18;7.05;;;3.42;;
75135;SDS011;63707;52.212;9.540;2023-02-28T12:23:58;5.93;;;3.20;;
75135;SDS011;63707;52.212;9.540;2023-02-28T12:29:04;7.38;;;3.58;;
75135;SDS011;63707;52.212;9.540;2023-02-28T12:31:38;7.28;;;4.60;;
75135;SDS011;63707;52.212;9.540;2023-02-28T12:34:11;6.03;;;4.20;;
75135;SDS011;63707;52.212;9.540;2023-02-28T12:36:40;5.13;;;2.97;;
75135;SDS011;63707;52.212;9.540;2023-02-28T12:39:10;6.88;;;3.60;;
75135;SDS011;63707;52.212;9.540;2023-02-28T12:41:41;6.53;;;3.83;;
75135;SDS011;63707;52.212;9.540;2023-02-28T12:44:11;5.47;;;3.33;;
75135;SDS011;63707;52.212;9.540;2023-02-28T12:46:42;6.35;;;3.78;;
75135;SDS011;63707;52.212;9.540;2023-02-28T12:49:15;3.97;;;3.17;;
75135;SDS011;63707;52.212;9.540;2023-02-28T12:51:44;4.47;;;3.13;;
75135;SDS011;63707;52.212;9.540;2023-02-28T12:54:14;9.63;;;6.65;;
75135;SDS011;63707;52.212;9.540;2023-02-28T12:56:48;6.78;;;3.20;;
75135;SDS011;63707;52.212;9.540;2023-02-28T12:59:22;4.65;;;2.80;;
75135;SDS011;63707;52.212;9.540;2023-02-28T13:02:00;4.63;;;2.75;;
75135;SDS011;63707;52.212;9.540;2023-02-28T13:04:43;5.78;;;3.20;;
75135;SDS011;63707;52.212;9.540;2023-02-28T13:07:29;6.60;;;2.60;;
75135;SDS011;63707;52.212;9.540;2023-02-28T13:10:14;5.32;;;2.95;;
75135;SDS011;63707;52.212;9.540;2023-02-28T13:12:47;8.40;;;2.83;;
75135;SDS011;63707;52.212;9.540;2023-02-28T13:15:16;6.68;;;2.85;;
75135;SDS011;63707;52.212;9.540;2023-02-28T13:17:48;5.18;;;2.80;;
75135;SDS011;63707;52.212;9.540;2023-02-28T13:20:16;5.20;;;2.83;;
75135;SDS011;63707;52.212;9.540;2023-02-28T13:22:46;4.63;;;2.63;;
75135;SDS011;63707;52.212;9.540;2023-02-28T13:28:55;6.40;;;3.13;;
75135;SDS011;63707;52.212;9.540;2023-02-28T13:31:31;5.97;;;2.75;;
75135;SDS011;63707;52.212;9.540;2023-02-28T13:34:04;7.82;;;3.08;;
75135;SDS011;63707;52.212;9.540;2023-02-28T13:36:38;4.85;;;2.85;;
75135;SDS011;63707;52.212;9.540;2023-02-28T13:39:15;4.00;;;2.35;;
75135;SDS011;63707;52.212;9.540;2023-02-28T13:42:31;4.03;;;2.30;;
75135;SDS011;63707;52.212;9.540;2023-02-28T13:45:20;5.80;;;2.60;;
75135;SDS011;63707;52.212;9.540;2023-02-28T13:47:52;4.25;;;2.35;;
75135;SDS011;63707;52.212;9.540;2023-02-28T13:50:21;6.85;;;2.38;;
75135;SDS011;63707;52.212;9.540;2023-02-28T13:52:52;4.35;;;2.40;;
75135;SDS011;63707;52.212;9.540;2023-02-28T13:55:27;4.68;;;2.00;;
75135;SDS011;63707;52.212;9.540;2023-02-28T13:57:59;2.83;;;2.03;;
75135;SDS011;63707;52.212;9.540;2023-02-28T14:00:42;6.65;;;2.88;;
75135;SDS011;63707;52.212;9.540;2023-02-28T14:03:31;5.88;;;2.30;;
75135;SDS011;63707;52.212;9.540;2023-02-28T14:06:07;5.13;;;2.88;;
75135;SDS011;63707;52.212;9.540;2023-02-28T14:08:44;5.55;;;2.55;;
75135;SDS011;63707;52.212;9.540;2023-02-28T14:11:24;7.40;;;2.53;;
75135;SDS011;63707;52.212;9.540;2023-02-28T14:13:54;5.32;;;2.45;;
75135;SDS011;63707;52.212;9.540;2023-02-28T14:16:20;4.88;;;2.28;;
75135;SDS011;63707;52.212;9.540;2023-02-28T14:18:51;4.63;;;2.90;;
75135;SDS011;63707;52.212;9.540;2023-02-28T14:21:22;6.05;;;2.90;;
75135;SDS011;63707;52.212;9.540;2023-02-28T14:27:01;5.28;;;2.38;;
75135;SDS011;63707;52.212;9.540;2023-02-28T14:29:36;4.95;;;2.40;;
75135;SDS011;63707;52.212;9.540;2023-02-28T14:32:18;5.25;;;2.97;;
75135;SDS011;63707;52.212;9.540;2023-02-28T14:34:52;3.65;;;2.40;;
75135;SDS011;63707;52.212;9.540;2023-02-28T14:37:25;5.90;;;2.80;;
75135;SDS011;63707;52.212;9.540;2023-02-28T14:39:54;4.95;;;2.50;;
75135;SDS011;63707;52.212;9.540;2023-02-28T14:42:28;6.13;;;3.10;;
75135;SDS011;63707;52.212;9.540;2023-02-28T14:44:55;4.75;;;2.42;;
75135;SDS011;63707;52.212;9.540;2023-02-28T14:47:21;6.78;;;3.20;;
75135;SDS011;63707;52.212;9.540;2023-02-28T14:49:52;6.45;;;2.90;;
75135;SDS011;63707;52.212;9.540;2023-02-28T14:52:19;5.68;;;2.58;;
75135;SDS011;63707;52.212;9.540;2023-02-28T14:54:46;5.20;;;2.97;;
75135;SDS011;63707;52.212;9.540;2023-02-28T14:57:21;6.00;;;3.00;;
75135;SDS011;63707;52.212;9.540;2023-02-28T14:59:56;7.47;;;3.08;;
75135;SDS011;63707;52.212;9.540;2023-02-28T15:02:23;5.47;;;2.90;;
75135;SDS011;63707;52.212;9.540;2023-02-28T15:04:55;3.97;;;2.42;;
75135;SDS011;63707;52.212;9.540;2023-02-28T15:07:21;5.03;;;2.42;;
75135;SDS011;63707;52.212;9.540;2023-02-28T15:12:40;7.32;;;2.90;;
75135;SDS011;63707;52.212;9.540;2023-02-28T15:15:14;4.93;;;2.88;;
75135;SDS011;63707;52.212;9.540;2023-02-28T15:17:40;4.65;;;2.90;;
75135;SDS011;63707;52.212;9.540;2023-02-28T15:20:12;5.30;;;2.88;;
75135;SDS011;63707;52.212;9.540;2023-02-28T15:22:40;6.03;;;2.92;;
75135;SDS011;63707;52.212;9.540;2023-02-28T15:25:06;9.75;;;3.20;;
75135;SDS011;63707;52.212;9.540;2023-02-28T15:27:35;7.70;;;2.90;;